sensor_id;sensor_type;location;lat;lon;timestamp;temperature;humidity
74792;SHT30;63319;46.046;17.802;2024-02-14T00:02:58;5.57;69.87
74792;SHT30;63319;46.046;17.802;2024-02-14T00:06:01;5.11;70.99
74792;SHT30;63319;46.046;17.802;2024-02-14T00:09:05;5.21;72.25
74792;SHT30;63319;46.046;17.802;2024-02-14T00:12:09;5.40;71.54
74792;SHT30;63319;46.046;17.802;2024-02-14T00:15:13;5.39;71.26
74792;SHT30;63319;46.046;17.802;2024-02-14T00:18:16;5.36;71.21
74792;SHT30;63319;46.046;17.802;2024-02-14T00:21:19;5.45;71.02
74792;SHT30;63319;46.046;17.802;2024-02-14T00:24:22;5.01;71.36
74792;SHT30;63319;46.046;17.802;2024-02-14T00:27:26;4.74;71.46
74792;SHT30;63319;46.046;17.802;2024-02-14T00:30:29;4.89;72.18
74792;SHT30;63319;46.046;17.802;2024-02-14T00:33:33;4.83;71.38
74792;SHT30;63319;46.046;17.802;2024-02-14T00:36:36;4.68;72.81
74792;SHT30;63319;46.046;17.802;2024-02-14T00:39:39;4.81;73.83
74792;SHT30;63319;46.046;17.802;2024-02-14T00:42:42;4.77;71.83
74792;SHT30;63319;46.046;17.802;2024-02-14T00:45:45;4.50;73.42
74792;SHT30;63319;46.046;17.802;2024-02-14T00:48:48;4.46;73.42
74792;SHT30;63319;46.046;17.802;2024-02-14T00:51:52;4.10;74.07
74792;SHT30;63319;46.046;17.802;2024-02-14T00:54:55;4.12;74.12
74792;SHT30;63319;46.046;17.802;2024-02-14T00:57:58;4.46;72.84
74792;SHT30;63319;46.046;17.802;2024-02-14T01:01:01;4.42;73.12
74792;SHT30;63319;46.046;17.802;2024-02-14T01:04:05;4.92;73.10
74792;SHT30;63319;46.046;17.802;2024-02-14T01:07:08;4.99;73.10
74792;SHT30;63319;46.046;17.802;2024-02-14T01:10:11;4.80;71.82
74792;SHT30;63319;46.046;17.802;2024-02-14T01:13:14;5.16;72.04
74792;SHT30;63319;46.046;17.802;2024-02-14T01:16:17;4.25;74.72
74792;SHT30;63319;46.046;17.802;2024-02-14T01:19:20;5.05;73.91
74792;SHT30;63319;46.046;17.802;2024-02-14T01:22:24;4.75;73.42
74792;SHT30;63319;46.046;17.802;2024-02-14T01:25:27;4.80;71.59
74792;SHT30;63319;46.046;17.802;2024-02-14T01:28:30;4.46;74.66
74792;SHT30;63319;46.046;17.802;2024-02-14T01:31:33;4.68;74.54
74792;SHT30;63319;46.046;17.802;2024-02-14T01:34:39;3.71;77.54
74792;SHT30;63319;46.046;17.802;2024-02-14T01:37:44;4.70;74.76
74792;SHT30;63319;46.046;17.802;2024-02-14T01:40:48;4.66;74.72
74792;SHT30;63319;46.046;17.802;2024-02-14T01:43:51;4.50;73.84
74792;SHT30;63319;46.046;17.802;2024-02-14T01:46:54;4.09;73.78
74792;SHT30;63319;46.046;17.802;2024-02-14T01:49:58;4.22;74.90
74792;SHT30;63319;46.046;17.802;2024-02-14T01:53:01;4.73;74.60
74792;SHT30;63319;46.046;17.802;2024-02-14T01:56:05;3.64;75.86
74792;SHT30;63319;46.046;17.802;2024-02-14T01:59:09;4.33;76.18
74792;SHT30;63319;46.046;17.802;2024-02-14T02:02:12;4.73;74.22
74792;SHT30;63319;46.046;17.802;2024-02-14T02:05:15;4.70;73.49
74792;SHT30;63319;46.046;17.802;2024-02-14T02:08:20;3.20;76.83
74792;SHT30;63319;46.046;17.802;2024-02-14T02:11:25;2.61;79.17
74792;SHT30;63319;46.046;17.802;2024-02-14T02:14:28;3.01;78.99
74792;SHT30;63319;46.046;17.802;2024-02-14T02:17:33;3.66;77.04
74792;SHT30;63319;46.046;17.802;2024-02-14T02:20:39;3.77;77.38
74792;SHT30;63319;46.046;17.802;2024-02-14T02:23:42;3.09;77.45
74792;SHT30;63319;46.046;17.802;2024-02-14T02:26:47;2.71;79.53
74792;SHT30;63319;46.046;17.802;2024-02-14T02:29:50;3.46;78.95
74792;SHT30;63319;46.046;17.802;2024-02-14T02:32:53;4.05;75.61
74792;SHT30;63319;46.046;17.802;2024-02-14T02:35:57;3.56;76.18
74792;SHT30;63319;46.046;17.802;2024-02-14T02:39:00;4.02;76.73
74792;SHT30;63319;46.046;17.802;2024-02-14T02:42:04;4.33;76.65
74792;SHT30;63319;46.046;17.802;2024-02-14T02:45:07;4.09;75.84
74792;SHT30;63319;46.046;17.802;2024-02-14T02:48:10;4.22;75.07
74792;SHT30;63319;46.046;17.802;2024-02-14T02:51:16;4.09;75.87
74792;SHT30;63319;46.046;17.802;2024-02-14T02:54:20;4.33;75.43
74792;SHT30;63319;46.046;17.802;2024-02-14T02:57:25;4.78;74.29
74792;SHT30;63319;46.046;17.802;2024-02-14T03:00:29;4.64;74.05
74792;SHT30;63319;46.046;17.802;2024-02-14T03:03:32;4.64;73.07
74792;SHT30;63319;46.046;17.802;2024-02-14T03:06:36;4.25;73.89
74792;SHT30;63319;46.046;17.802;2024-02-14T03:09:39;4.28;74.74
74792;SHT30;63319;46.046;17.802;2024-02-14T03:12:48;4.25;74.87
74792;SHT30;63319;46.046;17.802;2024-02-14T03:15:51;4.23;74.97
74792;SHT30;63319;46.046;17.802;2024-02-14T03:18:54;4.23;74.71
74792;SHT30;63319;46.046;17.802;2024-02-14T03:21:57;4.12;74.49
74792;SHT30;63319;46.046;17.802;2024-02-14T03:25:01;3.91;74.85
74792;SHT30;63319;46.046;17.802;2024-02-14T03:28:04;3.95;75.53
74792;SHT30;63319;46.046;17.802;2024-02-14T03:31:12;3.87;76.19
74792;SHT30;63319;46.046;17.802;2024-02-14T03:34:18;3.64;75.86
74792;SHT30;63319;46.046;17.802;2024-02-14T03:37:22;3.91;75.03
74792;SHT30;63319;46.046;17.802;2024-02-14T03:40:25;3.77;75.75
74792;SHT30;63319;46.046;17.802;2024-02-14T03:43:28;3.87;75.57
74792;SHT30;63319;46.046;17.802;2024-02-14T03:46:31;4.16;75.69
74792;SHT30;63319;46.046;17.802;2024-02-14T03:49:34;4.20;75.09
74792;SHT30;63319;46.046;17.802;2024-02-14T03:52:38;4.29;75.07
74792;SHT30;63319;46.046;17.802;2024-02-14T03:55:41;3.98;74.67
74792;SHT30;63319;46.046;17.802;2024-02-14T03:58:44;3.71;76.26
74792;SHT30;63319;46.046;17.802;2024-02-14T04:01:47;3.82;75.49
74792;SHT30;63319;46.046;17.802;2024-02-14T04:04:50;3.41;75.35
74792;SHT30;63319;46.046;17.802;2024-02-14T04:07:53;2.34;79.82
74792;SHT30;63319;46.046;17.802;2024-02-14T04:10:57;3.44;77.83
74792;SHT30;63319;46.046;17.802;2024-02-14T04:14:00;3.85;76.21
74792;SHT30;63319;46.046;17.802;2024-02-14T04:17:04;3.82;75.30
74792;SHT30;63319;46.046;17.802;2024-02-14T04:20:10;3.15;74.46
74792;SHT30;63319;46.046;17.802;2024-02-14T04:23:13;2.30;79.82
74792;SHT30;63319;46.046;17.802;2024-02-14T04:26:20;1.86;80.71
74792;SHT30;63319;46.046;17.802;2024-02-14T04:29:23;1.48;82.41
74792;SHT30;63319;46.046;17.802;2024-02-14T04:32:26;2.26;83.18
74792;SHT30;63319;46.046;17.802;2024-02-14T04:35:30;3.10;79.17
74792;SHT30;63319;46.046;17.802;2024-02-14T04:38:33;3.16;78.62
74792;SHT30;63319;46.046;17.802;2024-02-14T04:41:36;3.40;77.62
74792;SHT30;63319;46.046;17.802;2024-02-14T04:44:58;3.16;77.01
74792;SHT30;63319;46.046;17.802;2024-02-14T04:48:01;3.06;77.56
74792;SHT30;63319;46.046;17.802;2024-02-14T04:51:05;3.43;77.99
74792;SHT30;63319;46.046;17.802;2024-02-14T04:54:08;3.24;77.95
74792;SHT30;63319;46.046;17.802;2024-02-14T04:57:11;3.47;76.57
74792;SHT30;63319;46.046;17.802;2024-02-14T05:00:15;3.29;76.51
74792;SHT30;63319;46.046;17.802;2024-02-14T05:03:19;3.79;76.92
74792;SHT30;63319;46.046;17.802;2024-02-14T05:06:22;3.58;75.33
74792;SHT30;63319;46.046;17.802;2024-02-14T05:09:25;3.77;75.79
74792;SHT30;63319;46.046;17.802;2024-02-14T05:12:28;3.31;76.55
74792;SHT30;63319;46.046;17.802;2024-02-14T05:15:31;3.73;77.30
74792;SHT30;63319;46.046;17.802;2024-02-14T05:18:34;3.77;75.33
74792;SHT30;63319;46.046;17.802;2024-02-14T05:21:37;3.81;75.65
74792;SHT30;63319;46.046;17.802;2024-02-14T05:24:40;3.53;76.91
74792;SHT30;63319;46.046;17.802;2024-02-14T05:27:44;3.49;76.19
74792;SHT30;63319;46.046;17.802;2024-02-14T05:30:49;3.47;76.48
74792;SHT30;63319;46.046;17.802;2024-02-14T05:33:52;3.49;76.69
74792;SHT30;63319;46.046;17.802;2024-02-14T05:36:56;3.27;77.44
74792;SHT30;63319;46.046;17.802;2024-02-14T05:39:58;3.06;76.44
74792;SHT30;63319;46.046;17.802;2024-02-14T05:43:02;3.29;76.64
74792;SHT30;63319;46.046;17.802;2024-02-14T05:46:04;3.68;76.23
74792;SHT30;63319;46.046;17.802;2024-02-14T05:49:08;3.77;76.02
74792;SHT30;63319;46.046;17.802;2024-02-14T05:52:11;3.58;76.67
74792;SHT30;63319;46.046;17.802;2024-02-14T05:55:14;3.29;76.27
74792;SHT30;63319;46.046;17.802;2024-02-14T05:58:18;2.99;79.30
74792;SHT30;63319;46.046;17.802;2024-02-14T06:01:21;3.53;75.88
74792;SHT30;63319;46.046;17.802;2024-02-14T06:04:25;3.74;75.97
74792;SHT30;63319;46.046;17.802;2024-02-14T06:07:27;3.71;75.45
74792;SHT30;63319;46.046;17.802;2024-02-14T06:10:30;3.58;75.28
74792;SHT30;63319;46.046;17.802;2024-02-14T06:13:34;3.79;75.41
74792;SHT30;63319;46.046;17.802;2024-02-14T06:16:38;3.61;75.59
74792;SHT30;63319;46.046;17.802;2024-02-14T06:19:41;3.49;76.30
74792;SHT30;63319;46.046;17.802;2024-02-14T06:22:45;3.78;75.75
74792;SHT30;63319;46.046;17.802;2024-02-14T06:26:03;3.92;76.53
74792;SHT30;63319;46.046;17.802;2024-02-14T06:29:06;3.44;75.49
74792;SHT30;63319;46.046;17.802;2024-02-14T06:32:13;3.47;75.68
74792;SHT30;63319;46.046;17.802;2024-02-14T06:35:16;3.70;75.01
74792;SHT30;63319;46.046;17.802;2024-02-14T06:38:22;2.91;76.38
74792;SHT30;63319;46.046;17.802;2024-02-14T06:41:25;3.53;76.82
74792;SHT30;63319;46.046;17.802;2024-02-14T06:44:29;3.40;77.42
74792;SHT30;63319;46.046;17.802;2024-02-14T06:47:32;3.98;75.26
74792;SHT30;63319;46.046;17.802;2024-02-14T06:50:35;3.44;75.72
74792;SHT30;63319;46.046;17.802;2024-02-14T06:53:38;3.27;77.83
74792;SHT30;63319;46.046;17.802;2024-02-14T06:56:42;3.05;76.70
74792;SHT30;63319;46.046;17.802;2024-02-14T06:59:45;3.57;76.74
74792;SHT30;63319;46.046;17.802;2024-02-14T07:02:48;3.95;74.44
74792;SHT30;63319;46.046;17.802;2024-02-14T07:05:52;3.77;75.55
74792;SHT30;63319;46.046;17.802;2024-02-14T07:08:56;3.47;75.66
74792;SHT30;63319;46.046;17.802;2024-02-14T07:12:00;4.30;73.68
74792;SHT30;63319;46.046;17.802;2024-02-14T07:15:05;3.82;76.60
74792;SHT30;63319;46.046;17.802;2024-02-14T07:18:12;4.35;73.43
74792;SHT30;63319;46.046;17.802;2024-02-14T07:21:16;5.60;71.05
74792;SHT30;63319;46.046;17.802;2024-02-14T07:24:20;6.07;66.87
74792;SHT30;63319;46.046;17.802;2024-02-14T07:27:23;6.70;65.47
74792;SHT30;63319;46.046;17.802;2024-02-14T07:30:27;6.97;64.57
74792;SHT30;63319;46.046;17.802;2024-02-14T07:33:30;7.93;62.22
74792;SHT30;63319;46.046;17.802;2024-02-14T07:36:34;9.02;57.47
74792;SHT30;63319;46.046;17.802;2024-02-14T07:39:37;11.43;51.55
74792;SHT30;63319;46.046;17.802;2024-02-14T07:42:40;12.32;49.38
74792;SHT30;63319;46.046;17.802;2024-02-14T07:45:43;12.84;45.80
74792;SHT30;63319;46.046;17.802;2024-02-14T07:48:47;13.18;45.88
74792;SHT30;63319;46.046;17.802;2024-02-14T07:51:51;12.73;48.48
74792;SHT30;63319;46.046;17.802;2024-02-14T07:54:55;14.78;42.61
74792;SHT30;63319;46.046;17.802;2024-02-14T07:57:58;14.73;43.47
74792;SHT30;63319;46.046;17.802;2024-02-14T08:01:02;14.42;42.07
74792;SHT30;63319;46.046;17.802;2024-02-14T08:04:07;11.94;49.49
74792;SHT30;63319;46.046;17.802;2024-02-14T08:07:10;11.90;48.97
74792;SHT30;63319;46.046;17.802;2024-02-14T08:10:13;11.70;48.02
74792;SHT30;63319;46.046;17.802;2024-02-14T08:13:16;13.03;45.93
74792;SHT30;63319;46.046;17.802;2024-02-14T08:16:20;12.61;49.30
74792;SHT30;63319;46.046;17.802;2024-02-14T08:19:23;12.72;47.09
74792;SHT30;63319;46.046;17.802;2024-02-14T08:22:26;14.24;44.41
74792;SHT30;63319;46.046;17.802;2024-02-14T08:25:30;15.20;43.13
74792;SHT30;63319;46.046;17.802;2024-02-14T08:28:33;16.57;39.83
74792;SHT30;63319;46.046;17.802;2024-02-14T08:31:37;13.63;44.79
74792;SHT30;63319;46.046;17.802;2024-02-14T08:34:41;14.17;45.61
74792;SHT30;63319;46.046;17.802;2024-02-14T08:37:45;17.08;41.17
74792;SHT30;63319;46.046;17.802;2024-02-14T08:40:48;16.89;39.93
74792;SHT30;63319;46.046;17.802;2024-02-14T08:43:51;14.38;44.19
74792;SHT30;63319;46.046;17.802;2024-02-14T08:46:54;13.14;48.92
74792;SHT30;63319;46.046;17.802;2024-02-14T08:49:57;13.82;48.25
74792;SHT30;63319;46.046;17.802;2024-02-14T08:53:01;14.06;46.20
74792;SHT30;63319;46.046;17.802;2024-02-14T08:56:04;14.48;44.76
74792;SHT30;63319;46.046;17.802;2024-02-14T08:59:07;14.34;44.64
74792;SHT30;63319;46.046;17.802;2024-02-14T09:02:10;15.58;42.58
74792;SHT30;63319;46.046;17.802;2024-02-14T09:05:13;15.71;42.85
74792;SHT30;63319;46.046;17.802;2024-02-14T09:08:17;18.46;38.65
74792;SHT30;63319;46.046;17.802;2024-02-14T09:11:19;16.88;39.75
74792;SHT30;63319;46.046;17.802;2024-02-14T09:14:23;15.43;40.91
74792;SHT30;63319;46.046;17.802;2024-02-14T09:17:28;15.91;41.29
74792;SHT30;63319;46.046;17.802;2024-02-14T09:20:32;14.65;42.60
74792;SHT30;63319;46.046;17.802;2024-02-14T09:23:35;18.55;37.16
74792;SHT30;63319;46.046;17.802;2024-02-14T09:26:42;17.70;37.87
74792;SHT30;63319;46.046;17.802;2024-02-14T09:29:46;19.25;34.63
74792;SHT30;63319;46.046;17.802;2024-02-14T09:32:52;19.62;34.99
74792;SHT30;63319;46.046;17.802;2024-02-14T09:35:55;19.00;36.32
74792;SHT30;63319;46.046;17.802;2024-02-14T09:38:58;20.02;35.29
74792;SHT30;63319;46.046;17.802;2024-02-14T09:42:08;19.18;34.34
74792;SHT30;63319;46.046;17.802;2024-02-14T09:45:14;18.22;35.66
74792;SHT30;63319;46.046;17.802;2024-02-14T09:48:23;16.16;39.80
74792;SHT30;63319;46.046;17.802;2024-02-14T09:51:26;17.76;37.51
74792;SHT30;63319;46.046;17.802;2024-02-14T09:54:32;18.70;38.91
74792;SHT30;63319;46.046;17.802;2024-02-14T09:57:41;18.17;35.76
74792;SHT30;63319;46.046;17.802;2024-02-14T10:00:46;17.76;37.71
74792;SHT30;63319;46.046;17.802;2024-02-14T10:03:53;18.31;36.75
74792;SHT30;63319;46.046;17.802;2024-02-14T10:06:56;16.91;37.60
74792;SHT30;63319;46.046;17.802;2024-02-14T10:10:06;17.01;36.93
74792;SHT30;63319;46.046;17.802;2024-02-14T10:13:09;18.83;37.03
74792;SHT30;63319;46.046;17.802;2024-02-14T10:16:16;22.45;29.70
74792;SHT30;63319;46.046;17.802;2024-02-14T10:19:23;22.52;31.15
74792;SHT30;63319;46.046;17.802;2024-02-14T10:22:38;23.51;28.11
74792;SHT30;63319;46.046;17.802;2024-02-14T10:25:41;21.78;31.99
74792;SHT30;63319;46.046;17.802;2024-02-14T10:28:46;20.63;32.14
74792;SHT30;63319;46.046;17.802;2024-02-14T10:31:52;20.50;34.20
74792;SHT30;63319;46.046;17.802;2024-02-14T10:34:55;22.56;30.53
74792;SHT30;63319;46.046;17.802;2024-02-14T10:38:00;20.02;32.25
74792;SHT30;63319;46.046;17.802;2024-02-14T10:41:05;17.65;37.11
74792;SHT30;63319;46.046;17.802;2024-02-14T10:44:11;20.84;32.02
74792;SHT30;63319;46.046;17.802;2024-02-14T10:47:19;21.90;30.45
74792;SHT30;63319;46.046;17.802;2024-02-14T10:50:24;22.38;30.22
74792;SHT30;63319;46.046;17.802;2024-02-14T10:53:29;22.83;29.85
74792;SHT30;63319;46.046;17.802;2024-02-14T10:56:39;19.00;34.53
74792;SHT30;63319;46.046;17.802;2024-02-14T10:59:45;19.69;32.18
74792;SHT30;63319;46.046;17.802;2024-02-14T11:02:49;22.73;29.72
74792;SHT30;63319;46.046;17.802;2024-02-14T11:05:54;20.51;33.61
74792;SHT30;63319;46.046;17.802;2024-02-14T11:09:04;22.53;30.39
74792;SHT30;63319;46.046;17.802;2024-02-14T11:12:13;24.33;26.77
74792;SHT30;63319;46.046;17.802;2024-02-14T11:15:21;21.90;30.79
74792;SHT30;63319;46.046;17.802;2024-02-14T11:18:25;20.45;33.50
74792;SHT30;63319;46.046;17.802;2024-02-14T11:21:29;22.81;30.16
74792;SHT30;63319;46.046;17.802;2024-02-14T11:24:36;21.49;33.11
74792;SHT30;63319;46.046;17.802;2024-02-14T11:27:45;22.16;29.96
74792;SHT30;63319;46.046;17.802;2024-02-14T11:30:48;24.03;27.29
74792;SHT30;63319;46.046;17.802;2024-02-14T11:33:51;21.63;31.89
74792;SHT30;63319;46.046;17.802;2024-02-14T11:36:57;20.91;32.37
74792;SHT30;63319;46.046;17.802;2024-02-14T11:40:00;18.96;35.33
74792;SHT30;63319;46.046;17.802;2024-02-14T11:43:04;20.74;33.16
74792;SHT30;63319;46.046;17.802;2024-02-14T11:46:07;19.04;35.21
74792;SHT30;63319;46.046;17.802;2024-02-14T11:49:11;20.99;34.35
74792;SHT30;63319;46.046;17.802;2024-02-14T11:52:14;20.68;31.76
74792;SHT30;63319;46.046;17.802;2024-02-14T11:55:17;19.35;33.95
74792;SHT30;63319;46.046;17.802;2024-02-14T11:58:20;20.17;34.40
74792;SHT30;63319;46.046;17.802;2024-02-14T12:01:23;20.00;34.21
74792;SHT30;63319;46.046;17.802;2024-02-14T12:04:26;22.19;30.94
74792;SHT30;63319;46.046;17.802;2024-02-14T12:07:29;22.93;29.66
74792;SHT30;63319;46.046;17.802;2024-02-14T12:10:32;20.92;33.95
74792;SHT30;63319;46.046;17.802;2024-02-14T12:13:35;19.87;33.19
74792;SHT30;63319;46.046;17.802;2024-02-14T12:16:40;23.63;29.34
74792;SHT30;63319;46.046;17.802;2024-02-14T12:19:43;23.90;28.31
74792;SHT30;63319;46.046;17.802;2024-02-14T12:22:50;22.50;29.44
74792;SHT30;63319;46.046;17.802;2024-02-14T12:25:53;22.38;30.71
74792;SHT30;63319;46.046;17.802;2024-02-14T12:28:56;23.87;28.40
74792;SHT30;63319;46.046;17.802;2024-02-14T12:32:06;22.87;30.51
74792;SHT30;63319;46.046;17.802;2024-02-14T12:35:10;20.95;31.85
74792;SHT30;63319;46.046;17.802;2024-02-14T12:38:14;20.99;32.42
74792;SHT30;63319;46.046;17.802;2024-02-14T12:41:17;24.67;26.67
74792;SHT30;63319;46.046;17.802;2024-02-14T12:44:20;25.30;25.92
74792;SHT30;63319;46.046;17.802;2024-02-14T12:47:25;22.66;29.64
74792;SHT30;63319;46.046;17.802;2024-02-14T12:50:34;24.20;27.61
74792;SHT30;63319;46.046;17.802;2024-02-14T12:53:38;21.77;30.11
74792;SHT30;63319;46.046;17.802;2024-02-14T12:56:42;22.00;29.47
74792;SHT30;63319;46.046;17.802;2024-02-14T12:59:45;22.81;28.41
74792;SHT30;63319;46.046;17.802;2024-02-14T13:02:49;23.38;27.88
74792;SHT30;63319;46.046;17.802;2024-02-14T13:05:53;21.47;30.46
74792;SHT30;63319;46.046;17.802;2024-02-14T13:08:56;21.12;32.98
74792;SHT30;63319;46.046;17.802;2024-02-14T13:12:00;22.38;28.17
74792;SHT30;63319;46.046;17.802;2024-02-14T13:15:03;22.62;29.26
74792;SHT30;63319;46.046;17.802;2024-02-14T13:18:06;22.33;28.71
74792;SHT30;63319;46.046;17.802;2024-02-14T13:21:10;21.36;32.60
74792;SHT30;63319;46.046;17.802;2024-02-14T13:24:13;20.81;32.56
74792;SHT30;63319;46.046;17.802;2024-02-14T13:27:16;21.08;29.87
74792;SHT30;63319;46.046;17.802;2024-02-14T13:30:20;21.94;29.25
74792;SHT30;63319;46.046;17.802;2024-02-14T13:33:24;17.71;35.15
74792;SHT30;63319;46.046;17.802;2024-02-14T13:36:28;18.85;35.35
74792;SHT30;63319;46.046;17.802;2024-02-14T13:39:31;16.39;38.32
74792;SHT30;63319;46.046;17.802;2024-02-14T13:42:34;16.44;40.22
74792;SHT30;63319;46.046;17.802;2024-02-14T13:45:41;17.45;37.50
74792;SHT30;63319;46.046;17.802;2024-02-14T13:48:48;17.42;36.56
74792;SHT30;63319;46.046;17.802;2024-02-14T13:51:52;17.04;38.05
74792;SHT30;63319;46.046;17.802;2024-02-14T13:54:55;15.95;40.33
74792;SHT30;63319;46.046;17.802;2024-02-14T13:58:00;15.99;39.60
74792;SHT30;63319;46.046;17.802;2024-02-14T14:01:03;15.78;40.12
74792;SHT30;63319;46.046;17.802;2024-02-14T14:04:25;15.30;42.62
74792;SHT30;63319;46.046;17.802;2024-02-14T14:07:29;15.02;41.12
74792;SHT30;63319;46.046;17.802;2024-02-14T14:10:33;15.33;42.28
74792;SHT30;63319;46.046;17.802;2024-02-14T14:13:36;15.92;40.44
74792;SHT30;63319;46.046;17.802;2024-02-14T14:16:39;16.42;38.45
74792;SHT30;63319;46.046;17.802;2024-02-14T14:19:42;16.23;40.63
74792;SHT30;63319;46.046;17.802;2024-02-14T14:22:45;16.15;40.22
74792;SHT30;63319;46.046;17.802;2024-02-14T14:25:48;15.27;42.22
74792;SHT30;63319;46.046;17.802;2024-02-14T14:28:51;14.30;43.51
74792;SHT30;63319;46.046;17.802;2024-02-14T14:31:57;15.30;41.80
74792;SHT30;63319;46.046;17.802;2024-02-14T14:35:02;15.74;39.47
74792;SHT30;63319;46.046;17.802;2024-02-14T14:38:05;15.81;40.50
74792;SHT30;63319;46.046;17.802;2024-02-14T14:41:11;15.85;41.51
74792;SHT30;63319;46.046;17.802;2024-02-14T14:44:15;15.26;43.21
74792;SHT30;63319;46.046;17.802;2024-02-14T14:47:19;15.23;40.97
74792;SHT30;63319;46.046;17.802;2024-02-14T14:50:22;15.50;41.75
74792;SHT30;63319;46.046;17.802;2024-02-14T14:53:25;15.44;42.22
74792;SHT30;63319;46.046;17.802;2024-02-14T14:56:28;15.48;40.18
74792;SHT30;63319;46.046;17.802;2024-02-14T14:59:31;15.34;40.87
74792;SHT30;63319;46.046;17.802;2024-02-14T15:02:41;15.07;41.45
74792;SHT30;63319;46.046;17.802;2024-02-14T15:05:44;14.73;43.36
74792;SHT30;63319;46.046;17.802;2024-02-14T15:08:47;14.92;43.60
74792;SHT30;63319;46.046;17.802;2024-02-14T15:11:51;14.81;43.60
74792;SHT30;63319;46.046;17.802;2024-02-14T15:14:55;13.97;44.12
74792;SHT30;63319;46.046;17.802;2024-02-14T15:17:58;13.76;44.66
74792;SHT30;63319;46.046;17.802;2024-02-14T15:21:01;13.99;44.33
74792;SHT30;63319;46.046;17.802;2024-02-14T15:24:06;13.72;48.01
74792;SHT30;63319;46.046;17.802;2024-02-14T15:27:09;13.75;46.40
74792;SHT30;63319;46.046;17.802;2024-02-14T15:30:16;13.75;45.83
74792;SHT30;63319;46.046;17.802;2024-02-14T15:33:38;13.93;45.71
74792;SHT30;63319;46.046;17.802;2024-02-14T15:36:41;14.10;45.52
74792;SHT30;63319;46.046;17.802;2024-02-14T15:39:43;13.90;45.79
74792;SHT30;63319;46.046;17.802;2024-02-14T15:42:47;13.35;47.77
74792;SHT30;63319;46.046;17.802;2024-02-14T15:45:50;13.58;47.07
74792;SHT30;63319;46.046;17.802;2024-02-14T15:48:53;13.38;46.91
74792;SHT30;63319;46.046;17.802;2024-02-14T15:51:57;13.27;46.46
74792;SHT30;63319;46.046;17.802;2024-02-14T15:55:00;13.22;46.56
74792;SHT30;63319;46.046;17.802;2024-02-14T15:58:03;13.14;48.21
74792;SHT30;63319;46.046;17.802;2024-02-14T16:01:07;13.00;47.46
74792;SHT30;63319;46.046;17.802;2024-02-14T16:04:10;13.07;49.14
74792;SHT30;63319;46.046;17.802;2024-02-14T16:07:12;13.00;49.02
74792;SHT30;63319;46.046;17.802;2024-02-14T16:10:15;12.76;48.45
74792;SHT30;63319;46.046;17.802;2024-02-14T16:13:18;12.73;49.37
74792;SHT30;63319;46.046;17.802;2024-02-14T16:16:22;12.97;49.73
74792;SHT30;63319;46.046;17.802;2024-02-14T16:19:25;12.86;51.25
74792;SHT30;63319;46.046;17.802;2024-02-14T16:22:28;12.53;53.00
74792;SHT30;63319;46.046;17.802;2024-02-14T16:25:32;12.79;52.00
74792;SHT30;63319;46.046;17.802;2024-02-14T16:28:38;12.61;53.33
74792;SHT30;63319;46.046;17.802;2024-02-14T16:31:40;12.42;53.71
74792;SHT30;63319;46.046;17.802;2024-02-14T16:34:47;12.56;52.42
74792;SHT30;63319;46.046;17.802;2024-02-14T16:37:53;12.63;51.87
74792;SHT30;63319;46.046;17.802;2024-02-14T16:40:56;12.24;53.66
74792;SHT30;63319;46.046;17.802;2024-02-14T16:43:59;12.39;52.64
74792;SHT30;63319;46.046;17.802;2024-02-14T16:47:02;12.35;53.24
74792;SHT30;63319;46.046;17.802;2024-02-14T16:50:05;12.38;53.93
74792;SHT30;63319;46.046;17.802;2024-02-14T16:53:10;12.14;54.93
74792;SHT30;63319;46.046;17.802;2024-02-14T16:56:13;12.33;53.07
74792;SHT30;63319;46.046;17.802;2024-02-14T16:59:17;12.39;53.48
74792;SHT30;63319;46.046;17.802;2024-02-14T17:02:19;12.40;53.44
74792;SHT30;63319;46.046;17.802;2024-02-14T17:05:22;12.28;53.98
74792;SHT30;63319;46.046;17.802;2024-02-14T17:08:26;12.05;53.89
74792;SHT30;63319;46.046;17.802;2024-02-14T17:11:28;12.06;54.13
74792;SHT30;63319;46.046;17.802;2024-02-14T17:14:32;12.15;54.90
74792;SHT30;63319;46.046;17.802;2024-02-14T17:17:36;12.11;56.07
74792;SHT30;63319;46.046;17.802;2024-02-14T17:20:39;11.98;55.28
74792;SHT30;63319;46.046;17.802;2024-02-14T17:23:45;11.91;55.02
74792;SHT30;63319;46.046;17.802;2024-02-14T17:26:48;11.74;56.70
74792;SHT30;63319;46.046;17.802;2024-02-14T17:29:52;11.59;56.31
74792;SHT30;63319;46.046;17.802;2024-02-14T17:32:55;11.66;55.55
74792;SHT30;63319;46.046;17.802;2024-02-14T17:36:01;11.69;55.70
74792;SHT30;63319;46.046;17.802;2024-02-14T17:39:05;11.59;56.35
74792;SHT30;63319;46.046;17.802;2024-02-14T17:42:08;11.63;56.44
74792;SHT30;63319;46.046;17.802;2024-02-14T17:45:11;11.46;55.99
74792;SHT30;63319;46.046;17.802;2024-02-14T17:48:15;11.30;56.38
74792;SHT30;63319;46.046;17.802;2024-02-14T17:51:18;11.30;56.01
74792;SHT30;63319;46.046;17.802;2024-02-14T17:54:21;11.30;55.88
74792;SHT30;63319;46.046;17.802;2024-02-14T17:57:25;11.47;57.31
74792;SHT30;63319;46.046;17.802;2024-02-14T18:00:28;11.47;55.67
74792;SHT30;63319;46.046;17.802;2024-02-14T18:03:31;11.27;55.50
74792;SHT30;63319;46.046;17.802;2024-02-14T18:06:35;11.32;56.62
74792;SHT30;63319;46.046;17.802;2024-02-14T18:09:38;11.23;56.65
74792;SHT30;63319;46.046;17.802;2024-02-14T18:12:41;11.44;57.09
74792;SHT30;63319;46.046;17.802;2024-02-14T18:15:45;11.37;56.53
74792;SHT30;63319;46.046;17.802;2024-02-14T18:18:49;11.26;56.47
74792;SHT30;63319;46.046;17.802;2024-02-14T18:21:52;11.08;57.53
74792;SHT30;63319;46.046;17.802;2024-02-14T18:24:56;11.08;57.79
74792;SHT30;63319;46.046;17.802;2024-02-14T18:27:58;11.01;56.93
74792;SHT30;63319;46.046;17.802;2024-02-14T18:31:01;11.06;56.60
74792;SHT30;63319;46.046;17.802;2024-02-14T18:34:06;10.72;56.81
74792;SHT30;63319;46.046;17.802;2024-02-14T18:37:10;10.91;58.76
74792;SHT30;63319;46.046;17.802;2024-02-14T18:40:13;10.89;57.40
74792;SHT30;63319;46.046;17.802;2024-02-14T18:43:16;11.01;57.75
74792;SHT30;63319;46.046;17.802;2024-02-14T18:46:19;11.05;57.38
74792;SHT30;63319;46.046;17.802;2024-02-14T18:49:24;11.08;56.88
74792;SHT30;63319;46.046;17.802;2024-02-14T18:52:27;10.98;58.29
74792;SHT30;63319;46.046;17.802;2024-02-14T18:55:30;11.01;58.27
74792;SHT30;63319;46.046;17.802;2024-02-14T18:58:33;11.04;58.59
74792;SHT30;63319;46.046;17.802;2024-02-14T19:01:37;10.98;57.66
74792;SHT30;63319;46.046;17.802;2024-02-14T19:04:40;10.79;58.15
74792;SHT30;63319;46.046;17.802;2024-02-14T19:07:43;10.69;59.24
74792;SHT30;63319;46.046;17.802;2024-02-14T19:10:46;10.65;58.51
74792;SHT30;63319;46.046;17.802;2024-02-14T19:13:49;10.61;59.52